Time;durP1;ratioP1;P1;durP2;ratioP2;P2;SDS_P1;SDS_P2;PMS_P1;PMS_P2;Temp;Humidity;BMP_temperature;BMP_pressure;BME280_temperature;BME280_humidity;BME280_pressure;Samples;Min_cycle;Max_cycle;Signal;HPM_P1;HPM_P2
2022/05/23 00:01:56;;;;;;;3.87;2.45;;;;;;;11.27;94.73;99410.52;1697148;84;21005;-56
2022/05/23 00:04:25;;;;;;;3.87;2.20;;;;;;;11.26;94.72;99404.73;1697126;84;20993;-57
2022/05/23 00:06:54;;;;;;;3.40;2.40;;;;;;;11.22;94.69;99404.88;1697087;84;21024;-57
2022/05/23 00:09:23;;;;;;;4.50;2.65;;;;;;;11.19;94.55;99408.08;1700539;84;21029;-56
2022/05/23 00:11:53;;;;;;;5.47;2.45;;;;;;;11.18;94.59;99411.34;1645548;87;21558;-57
2022/05/23 00:14:24;;;;;;;4.15;2.70;;;;;;;11.20;94.63;99411.12;1662400;86;21007;-56
2022/05/23 00:16:53;;;;;;;4.47;2.65;;;;;;;11.18;94.60;99408.61;1660147;86;21494;-57
2022/05/23 00:19:22;;;;;;;6.62;2.37;;;;;;;11.17;94.60;99407.46;1658402;86;21038;-55
2022/05/23 00:21:51;;;;;;;2.72;2.37;;;;;;;11.17;94.63;99418.42;1658409;86;21042;-56
2022/05/23 00:24:20;;;;;;;4.55;2.45;;;;;;;11.17;94.56;99415.69;1658344;86;21521;-55
2022/05/23 00:26:50;;;;;;;3.33;2.42;;;;;;;11.13;94.56;99412.56;1658391;86;21458;-56
2022/05/23 00:29:19;;;;;;;3.47;2.42;;;;;;;11.08;94.67;99413.23;1669996;83;21542;-56
2022/05/23 00:37:22;;;;;;;5.37;2.80;;;;;;;11.14;94.89;99426.57;1720617;83;21003;-56
2022/05/23 00:39:51;;;;;;;6.22;2.85;;;;;;;11.12;94.72;99421.84;1720468;83;20988;-57
2022/05/23 00:45:13;;;;;;;5.67;2.62;;;;;;;11.16;95.01;99430.45;1720372;83;21543;-56
2022/05/23 00:47:42;;;;;;;4.25;2.42;;;;;;;11.19;95.01;99437.70;1716095;83;21007;-57
2022/05/23 00:50:14;;;;;;;5.28;2.50;;;;;;;11.18;95.00;99440.14;1720366;83;21003;-55
2022/05/23 00:52:52;;;;;;;2.77;2.40;;;;;;;11.16;94.85;99442.80;1720380;83;21003;-54
2022/05/23 00:55:25;;;;;;;;;;;;;;;11.14;94.90;99436.16;1722933;83;21407;-55
2022/05/23 00:57:57;;;;;;;5.28;2.60;;;;;;;11.17;94.92;99432.13;1720587;83;20243;-57
2022/05/23 01:00:25;;;;;;;4.70;2.70;;;;;;;11.17;95.12;99439.83;1720494;83;21451;-56
2022/05/23 01:02:57;;;;;;;3.15;2.60;;;;;;;11.20;95.27;99435.27;1720460;83;21019;-56
2022/05/23 01:05:26;;;;;;;4.33;2.25;;;;;;;11.21;95.24;99431.98;1691842;83;21039;-56
2022/05/23 01:07:56;;;;;;;5.62;2.60;;;;;;;11.20;95.13;99434.42;1720559;83;20992;-57
2022/05/23 01:10:25;;;;;;;5.28;2.75;;;;;;;11.20;95.13;99435.27;1720564;83;21003;-56
2022/05/23 01:12:55;;;;;;;3.35;2.60;;;;;;;11.17;95.02;99445.31;1720373;83;21035;-56
2022/05/23 01:15:27;;;;;;;5.15;2.65;;;;;;;11.13;95.02;99449.56;1720402;83;20995;-56
2022/05/23 01:17:57;;;;;;;4.58;2.30;;;;;;;11.13;95.20;99452.84;1717622;83;21016;-57
2022/05/23 01:20:25;;;;;;;2.95;2.40;;;;;;;11.17;95.23;99456.81;1717429;83;20988;-56
2022/05/23 01:23:26;;;;;;;4.83;2.58;;;;;;;11.18;95.15;99455.75;1717481;83;20976;-55
2022/05/23 01:26:15;;;;;;;4.00;2.58;;;;;;;11.19;95.12;99446.45;1716601;83;21452;-57
2022/05/23 01:28:49;;;;;;;3.00;2.58;;;;;;;11.19;95.00;99457.42;1717212;83;20996;-57
2022/05/23 01:31:19;;;;;;;4.78;2.50;;;;;;;11.20;95.07;99448.13;1715435;83;21448;-57
2022/05/23 01:33:49;;;;;;;2.60;2.37;;;;;;;11.21;94.97;99451.19;1717442;83;21066;-56
2022/05/23 01:36:18;;;;;;;3.22;2.45;;;;;;;11.22;94.90;99462.45;1671731;83;21012;-56
2022/05/23 01:38:47;;;;;;;5.92;2.87;;;;;;;11.17;94.72;99460.92;1717312;83;21007;-56
2022/05/23 01:41:17;;;;;;;4.37;2.65;;;;;;;11.15;94.70;99469.91;1716753;83;20980;-55
2022/05/23 01:43:47;;;;;;;3.77;2.58;;;;;;;11.15;94.71;99474.02;1716558;83;21447;-55
2022/05/23 01:46:18;;;;;;;3.52;2.60;;;;;;;11.15;94.56;99471.27;1715982;83;21024;-56
2022/05/23 01:48:49;;;;;;;6.75;2.95;;;;;;;11.12;94.40;99471.19;1710440;83;21040;-57
2022/05/23 01:51:19;;;;;;;3.50;2.95;;;;;;;11.11;94.47;99475.84;1717287;83;20992;-56
2022/05/23 01:53:48;;;;;;;3.33;2.47;;;;;;;11.10;94.43;99475.53;1717569;83;21059;-55
2022/05/23 01:56:18;;;;;;;3.77;2.50;;;;;;;11.11;94.44;99477.20;1717424;83;20960;-56
2022/05/23 02:01:38;;;;;;;4.15;3.20;;;;;;;11.12;94.37;99468.45;1717342;83;20964;-56
2022/05/23 02:04:08;;;;;;;4.25;2.90;;;;;;;11.11;94.29;99468.98;1717260;83;21000;-56
2022/05/23 02:06:46;;;;;;;4.12;3.08;;;;;;;11.09;94.18;99471.11;1717327;83;21440;-56
2022/05/23 02:09:28;;;;;;;3.30;2.65;;;;;;;11.10;94.25;99482.38;1717280;83;21433;-55
2022/05/23 02:12:07;;;;;;;2.80;2.50;;;;;;;11.13;94.22;99479.72;1716884;83;21012;-56
2022/05/23 02:14:38;;;;;;;4.75;3.10;;;;;;;11.09;94.02;99481.23;1717735;83;20976;-55
2022/05/23 02:17:11;;;;;;;6.28;3.33;;;;;;;11.07;93.99;99477.88;1711527;83;21048;-56
2022/05/23 02:19:40;;;;;;;4.90;3.10;;;;;;;11.06;94.09;99482.52;1706652;84;21021;-56
2022/05/23 02:22:15;;;;;;;4.45;3.50;;;;;;;11.10;94.12;99480.17;1706616;84;21126;-55
2022/05/23 02:24:45;;;;;;;6.30;3.70;;;;;;;11.13;94.14;99483.83;1679125;83;21001;-56
2022/05/23 02:27:14;;;;;;;6.97;4.20;;;;;;;11.17;94.11;99485.59;1706904;84;21052;-56
2022/05/23 02:29:45;;;;;;;7.35;3.83;;;;;;;11.15;93.96;99482.24;1706623;84;21052;-56
2022/05/23 02:32:14;;;;;;;7.58;3.77;;;;;;;11.13;93.85;99485.73;1706590;84;21457;-55
2022/05/23 02:34:43;;;;;;;5.37;3.45;;;;;;;11.11;93.75;99485.96;1706659;84;20985;-55
2022/05/23 02:37:12;;;;;;;6.87;3.60;;;;;;;11.10;93.67;99489.23;1706575;84;20981;-55
2022/05/23 02:39:42;;;;;;;8.03;4.70;;;;;;;11.08;93.47;99494.10;1706207;83;21546;-55
2022/05/23 02:42:13;;;;;;;10.35;5.10;;;;;;;11.07;93.44;99497.91;1705983;84;21004;-56
2022/05/23 02:44:41;;;;;;;11.48;5.47;;;;;;;11.08;93.35;99502.86;1706742;84;20977;-56
2022/05/23 02:47:12;;;;;;;8.95;5.20;;;;;;;11.09;93.31;99504.53;1706632;84;21012;-56
2022/05/23 02:49:41;;;;;;;13.03;5.83;;;;;;;11.10;93.21;99501.57;1706561;83;21008;-57
2022/05/23 02:52:12;;;;;;;10.32;5.78;;;;;;;11.10;93.09;99507.05;1706799;84;21012;-57
2022/05/23 02:54:49;;;;;;;9.93;6.05;;;;;;;11.09;93.07;99519.08;1669384;84;21028;-56
2022/05/23 02:57:18;;;;;;;11.85;6.25;;;;;;;11.08;93.12;99511.92;1706666;84;21452;-56
2022/05/23 02:59:47;;;;;;;13.53;6.35;;;;;;;11.10;93.12;99517.17;1706651;84;20988;-55
2022/05/23 03:05:04;;;;;;;13.93;7.43;;;;;;;11.10;93.06;99524.88;1706827;84;21432;-57
2022/05/23 03:07:32;;;;;;;11.53;7.22;;;;;;;11.10;93.21;99517.17;1706657;84;21020;-57
2022/05/23 03:10:03;;;;;;;15.78;6.70;;;;;;;11.10;93.29;99521.29;1706668;83;20985;-56
2022/05/23 03:12:34;;;;;;;12.47;6.72;;;;;;;11.10;93.25;99531.73;1706589;84;21397;-56
2022/05/23 03:15:05;;;;;;;14.23;7.00;;;;;;;11.12;93.35;99530.13;1706886;84;20996;-56
2022/05/23 03:17:34;;;;;;;9.98;6.55;;;;;;;11.13;93.37;99532.34;1706633;83;21447;-56
2022/05/23 03:20:03;;;;;;;11.38;6.40;;;;;;;11.15;93.41;99532.96;1706653;84;21050;-57
2022/05/23 03:28:06;;;;;;;10.18;6.03;;;;;;;11.20;93.20;99537.24;1706837;84;20996;-57
2022/05/23 03:30:35;;;;;;;11.80;6.65;;;;;;;11.21;93.14;99538.92;1706693;84;21024;-54
2022/05/23 03:33:04;;;;;;;9.10;5.53;;;;;;;11.23;93.13;99546.39;1706595;84;20968;-57
2022/05/23 03:35:33;;;;;;;9.15;5.67;;;;;;;11.24;93.02;99551.66;1706535;83;21040;-56
2022/05/23 03:38:04;;;;;;;11.30;5.78;;;;;;;11.20;92.54;99542.20;1706797;84;20988;-57
2022/05/23 03:40:36;;;;;;;12.43;6.20;;;;;;;11.20;92.59;99542.20;1706573;84;21008;-56
2022/05/23 03:43:04;;;;;;;10.90;6.20;;;;;;;11.23;92.47;99540.38;1706689;84;21053;-57
2022/05/23 03:45:33;;;;;;;7.40;5.80;;;;;;;11.26;92.48;99545.42;1706569;84;21041;-57
2022/05/23 03:48:05;;;;;;;7.50;5.55;;;;;;;11.28;92.37;99547.41;1706620;84;21004;-58
2022/05/23 03:50:34;;;;;;;8.25;5.87;;;;;;;11.28;92.08;99546.56;1706592;84;21004;-57
2022/05/23 03:53:02;;;;;;;9.40;6.35;;;;;;;11.28;92.04;99543.29;1706648;84;20997;-56
2022/05/23 03:55:33;;;;;;;8.05;5.87;;;;;;;11.31;92.17;99552.97;1706646;84;21000;-56
2022/05/23 03:58:15;;;;;;;8.28;5.85;;;;;;;11.34;92.23;99552.52;1706583;84;20968;-56
2022/05/23 04:00:49;;;;;;;9.18;5.85;;;;;;;11.37;92.22;99550.17;1706809;84;21012;-56
2022/05/23 04:03:17;;;;;;;7.45;5.40;;;;;;;11.39;92.09;99551.33;1706681;84;21416;-56
2022/05/23 04:05:47;;;;;;;7.83;5.70;;;;;;;11.41;92.00;99550.04;1706671;84;21413;-56
2022/05/23 04:08:20;;;;;;;7.30;5.47;;;;;;;11.42;91.84;99551.72;1704328;84;21051;-56
2022/05/23 04:10:52;;;;;;;7.28;5.33;;;;;;;11.41;91.63;99547.83;1706649;84;21032;-56
2022/05/23 04:13:23;;;;;;;8.88;5.80;;;;;;;11.44;91.60;99552.86;1706843;84;21044;-56
2022/05/23 04:15:51;;;;;;;9.35;5.95;;;;;;;11.49;91.62;99552.19;1706691;84;21405;-56
2022/05/23 04:18:20;;;;;;;8.93;6.20;;;;;;;11.53;91.44;99553.42;1706686;83;21040;-57
2022/05/23 04:20:51;;;;;;;11.10;7.05;;;;;;;11.56;91.33;99548.33;1706709;84;21004;-56
2022/05/23 04:23:21;;;;;;;10.55;6.05;;;;;;;11.60;91.44;99550.92;1706659;83;21479;-55
2022/05/23 04:25:50;;;;;;;12.23;6.37;;;;;;;11.67;91.41;99554.45;1706792;84;21063;-55
2022/05/23 04:28:20;;;;;;;9.03;5.90;;;;;;;11.74;91.23;99559.37;1706865;84;21522;-56
2022/05/23 04:30:49;;;;;;;11.25;6.33;;;;;;;11.81;91.08;99554.38;1706684;84;20988;-56
2022/05/23 04:36:08;;;;;;;;;;;;;;;11.88;90.67;99543.64;1709317;84;21016;-56
2022/05/23 04:38:40;;;;;;;9.35;6.55;;;;;;;11.93;90.34;99553.41;1706154;84;20169;-56
2022/05/23 04:41:09;;;;;;;11.40;5.53;;;;;;;11.91;89.72;99551.95;1706806;84;21037;-56
2022/05/23 04:43:54;;;;;;;9.13;5.70;;;;;;;11.93;89.47;99555.31;1706648;84;21001;-56
2022/05/23 04:46:27;;;;;;;9.00;5.50;;;;;;;11.96;88.83;99554.32;1706735;84;20999;-56
2022/05/23 04:51:56;;;;;;;7.78;5.45;;;;;;;12.14;88.30;99555.39;1704773;84;20988;-58
2022/05/23 04:54:27;;;;;;;8.50;5.05;;;;;;;12.22;87.63;99557.30;1706060;84;21424;-56
2022/05/23 04:56:57;;;;;;;7.22;5.42;;;;;;;12.38;87.63;99559.47;1706704;84;21416;-57
2022/05/23 04:59:28;;;;;;;6.92;5.10;;;;;;;12.65;87.00;99559.13;1705919;84;21004;-57
2022/05/23 05:01:56;;;;;;;8.05;5.17;;;;;;;12.90;85.77;99554.33;1706636;84;21008;-56
2022/05/23 05:04:25;;;;;;;6.60;4.83;;;;;;;13.15;84.71;99557.48;1706621;84;20992;-56
2022/05/23 05:06:54;;;;;;;7.65;4.83;;;;;;;13.35;82.42;99564.92;1706650;84;20993;-58
2022/05/23 05:09:25;;;;;;;8.38;5.47;;;;;;;13.53;80.76;99558.48;1706675;84;21029;-57
2022/05/23 05:11:55;;;;;;;7.40;5.30;;;;;;;13.71;79.12;99558.95;1704989;84;21004;-57
2022/05/23 05:14:27;;;;;;;6.05;4.30;;;;;;;13.94;78.51;99553.44;1706340;84;20996;-56
2022/05/23 05:16:56;;;;;;;15.25;4.83;;;;;;;14.24;77.38;99549.15;1706722;84;21012;-56
2022/05/23 05:19:25;;;;;;;8.80;4.25;;;;;;;14.48;75.66;99552.75;1706598;83;21032;-57
2022/05/23 05:21:54;;;;;;;6.75;3.90;;;;;;;14.73;74.29;99557.41;1706638;84;20988;-56
2022/05/23 05:24:41;;;;;;;7.75;4.55;;;;;;;14.93;72.37;99555.58;1706835;84;21013;-57
2022/05/23 05:27:32;;;;;;;7.50;4.30;;;;;;;15.18;70.17;99556.63;1706068;84;20996;-56
2022/05/23 05:30:02;;;;;;;7.67;4.28;;;;;;;15.40;69.42;99558.11;1706546;84;21040;-59
2022/05/23 05:32:40;;;;;;;4.97;3.40;;;;;;;15.62;68.13;99555.50;1706694;84;20980;-57
2022/05/23 05:35:20;;;;;;;13.60;3.83;;;;;;;15.77;64.66;99561.27;1706770;84;20981;-57
2022/05/23 05:37:57;;;;;;;6.67;3.83;;;;;;;15.81;62.68;99556.38;1706644;84;21032;-57
2022/05/23 05:40:27;;;;;;;6.05;4.00;;;;;;;15.89;62.87;99563.39;1706594;84;20981;-57
2022/05/23 05:43:00;;;;;;;13.05;5.30;;;;;;;16.02;62.07;99558.89;1706923;84;20977;-57
2022/05/23 05:45:42;;;;;;;4.85;3.47;;;;;;;16.21;62.61;99555.84;1706733;84;21555;-58
2022/05/23 05:48:21;;;;;;;3.67;3.10;;;;;;;16.44;61.18;99558.39;1704856;84;21009;-57
2022/05/23 05:50:49;;;;;;;5.87;3.10;;;;;;;16.68;59.67;99559.00;1706647;84;21040;-57
2022/05/23 05:53:27;;;;;;;6.90;3.42;;;;;;;16.86;58.29;99559.21;1702283;84;21449;-56
2022/05/23 05:55:59;;;;;;;7.28;3.52;;;;;;;16.99;58.77;99562.44;1706678;84;21417;-56
2022/05/23 05:58:28;;;;;;;12.88;6.05;;;;;;;17.14;57.79;99560.38;1706725;84;21000;-60
2022/05/23 06:00:58;;;;;;;8.35;4.30;;;;;;;17.25;57.77;99558.55;1706643;84;20992;-58
2022/05/23 06:03:28;;;;;;;10.18;4.00;;;;;;;17.34;57.54;99556.97;1706706;84;21062;-57
2022/05/23 06:11:38;;;;;;;6.03;3.60;;;;;;;17.54;54.55;99555.77;1678954;84;21051;-57
2022/05/23 06:14:08;;;;;;;12.82;4.75;;;;;;;17.58;54.06;99559.72;1705556;84;21001;-57
2022/05/23 06:16:39;;;;;;;9.13;4.08;;;;;;;17.66;54.90;99557.00;1705656;84;21004;-56
2022/05/23 06:19:09;;;;;;;6.92;3.47;;;;;;;17.79;53.90;99564.06;1705546;83;21456;-57
2022/05/23 06:21:39;;;;;;;7.33;3.80;;;;;;;17.82;53.36;99569.91;1704890;84;21429;-57
2022/05/23 06:24:09;;;;;;;7.72;3.83;;;;;;;17.82;51.75;99567.69;1706551;84;20996;-58
2022/05/23 06:26:40;;;;;;;10.15;4.75;;;;;;;17.74;50.75;99564.86;1706226;84;21036;-58
2022/05/23 06:29:23;;;;;;;7.22;4.30;;;;;;;17.59;51.96;99568.31;1703555;84;20996;-58
2022/05/23 06:32:04;;;;;;;9.98;4.78;;;;;;;17.54;51.87;99567.40;1706629;84;21088;-58
2022/05/23 06:34:34;;;;;;;10.28;5.35;;;;;;;17.48;51.51;99562.91;1706595;84;20961;-58
2022/05/23 06:37:04;;;;;;;9.25;5.22;;;;;;;17.43;51.54;99563.16;1706622;84;21393;-56
2022/05/23 06:39:33;;;;;;;12.45;5.03;;;;;;;17.43;52.34;99560.94;1706744;84;21420;-58
2022/05/23 06:42:20;;;;;;;11.48;5.30;;;;;;;17.47;51.75;99564.02;1706572;84;21479;-58
2022/05/23 06:45:06;;;;;;;12.60;5.78;;;;;;;17.45;52.80;99569.81;1645830;87;21579;-57
2022/05/23 06:47:40;;;;;;;9.23;4.58;;;;;;;17.41;52.08;99572.28;1690432;84;20992;-56
2022/05/23 06:50:27;;;;;;;9.25;3.62;;;;;;;17.31;50.82;99565.26;1684028;84;21380;-57
2022/05/23 06:53:06;;;;;;;8.08;3.80;;;;;;;17.15;49.75;99573.13;1705403;84;20988;-57
2022/05/23 06:55:40;;;;;;;7.78;3.50;;;;;;;17.05;50.88;99574.40;1706819;84;21017;-57
2022/05/23 06:58:10;;;;;;;8.13;4.03;;;;;;;17.04;50.69;99571.34;1706660;84;21020;-57
2022/05/23 07:00:39;;;;;;;8.80;3.12;;;;;;;17.07;50.80;99582.73;1706645;84;20988;-56
2022/05/23 07:03:10;;;;;;;7.28;3.00;;;;;;;17.04;50.68;99578.27;1706330;84;21413;-57
2022/05/23 07:14:07;;;;;;;4.67;3.17;;;;;;;17.01;51.40;99566.33;1696967;84;20996;-57
2022/05/23 07:16:35;;;;;;;9.40;3.58;;;;;;;17.08;52.17;99570.56;1706619;84;21000;-58
2022/05/23 07:19:04;;;;;;;5.45;2.62;;;;;;;17.13;51.79;99571.16;1712066;83;21008;-57
2022/05/23 07:21:36;;;;;;;6.35;2.50;;;;;;;17.17;50.87;99569.55;1714611;83;21285;-56
2022/05/23 07:24:13;;;;;;;4.12;2.02;;;;;;;17.21;50.35;99567.09;1717102;83;21385;-58
2022/05/23 07:26:46;;;;;;;5.20;2.00;;;;;;;17.25;49.23;99565.47;1717217;83;21373;-57
2022/05/23 07:29:16;;;;;;;4.80;2.40;;;;;;;17.27;48.27;99566.87;1717243;83;21440;-57
2022/05/23 07:31:45;;;;;;;3.22;2.15;;;;;;;17.35;48.09;99565.02;1717261;83;20996;-56
2022/05/23 07:34:14;;;;;;;4.12;1.90;;;;;;;17.44;47.37;99564.83;1717293;83;21428;-57
2022/05/23 07:36:45;;;;;;;4.58;2.17;;;;;;;17.52;48.20;99569.59;1662292;86;21011;-58
2022/05/23 07:39:15;;;;;;;5.62;2.52;;;;;;;17.58;47.23;99562.48;1662423;86;21011;-57
2022/05/23 07:41:45;;;;;;;7.72;2.55;;;;;;;17.63;47.16;99574.16;1661640;86;21015;-59
2022/05/23 07:44:14;;;;;;;6.42;2.60;;;;;;;17.66;46.56;99571.73;1662542;86;21003;-57
2022/05/23 07:46:43;;;;;;;5.37;2.65;;;;;;;17.73;46.30;99577.05;1652152;86;21039;-58
2022/05/23 07:49:13;;;;;;;6.42;2.90;;;;;;;17.85;45.81;99574.09;1611953;88;21111;-58
2022/05/23 07:51:44;;;;;;;4.50;3.10;;;;;;;17.89;45.41;99576.61;1652496;86;21015;-58
2022/05/23 08:02:44;;;;;;;3.60;2.70;;;;;;;18.46;43.99;99568.95;1680368;85;20985;-57
2022/05/23 08:05:16;;;;;;;5.87;2.50;;;;;;;18.80;43.32;99576.34;1661523;85;21030;-58
2022/05/23 08:07:48;;;;;;;6.97;3.00;;;;;;;19.07;43.24;99563.69;1634278;88;21069;-58
2022/05/23 08:10:19;;;;;;;5.22;2.90;;;;;;;19.36;42.93;99568.19;1694665;85;21447;-57
2022/05/23 08:12:54;;;;;;;6.10;3.05;;;;;;;19.71;41.07;99561.33;1634355;88;21446;-57
2022/05/23 08:15:25;;;;;;;6.70;3.20;;;;;;;19.95;40.63;99569.38;1694826;85;21459;-58
2022/05/23 08:17:56;;;;;;;8.45;3.50;;;;;;;20.09;40.71;99561.29;1634103;88;21025;-56
2022/05/23 08:20:34;;;;;;;5.92;3.90;;;;;;;20.30;40.27;99552.93;1661135;86;21432;-58
2022/05/23 08:23:03;;;;;;;5.10;3.20;;;;;;;20.58;40.36;99551.75;1647697;86;21036;-58
2022/05/23 08:25:36;;;;;;;8.90;3.42;;;;;;;20.75;39.74;99547.78;1631621;88;21023;-58
2022/05/23 08:28:06;;;;;;;6.72;3.45;;;;;;;20.80;39.09;99547.77;1602583;88;21579;-58
2022/05/23 08:30:36;;;;;;;11.85;4.15;;;;;;;20.65;39.16;99550.61;1628991;88;21404;-58
2022/05/23 08:33:21;;;;;;;8.03;3.70;;;;;;;20.34;39.91;99549.30;1631701;88;21048;-58
2022/05/23 08:35:51;;;;;;;8.10;4.00;;;;;;;20.05;40.67;99556.57;1634867;86;21031;-59
2022/05/23 08:38:22;;;;;;;9.33;4.03;;;;;;;19.80;40.35;99550.48;1666223;86;21023;-57
2022/05/23 08:41:18;;;;;;;7.17;4.17;;;;;;;19.43;41.52;99552.92;1666071;86;20976;-59
2022/05/23 08:44:08;;;;;;;9.20;4.62;;;;;;;19.06;41.96;99550.92;1665751;86;21023;-58
2022/05/23 08:47:08;;;;;;;8.05;5.55;;;;;;;18.76;42.76;99559.96;1665315;86;21067;-59
2022/05/23 08:50:04;;;;;;;11.12;4.40;;;;;;;18.56;43.16;99550.42;1666101;86;21048;-59
2022/05/23 08:52:59;;;;;;;10.05;4.35;;;;;;;18.48;44.00;99559.26;1637706;86;21044;-59
2022/05/23 08:55:48;;;;;;;8.55;3.45;;;;;;;18.50;44.21;99551.50;1630072;86;21025;-57
2022/05/23 08:58:36;;;;;;;16.32;4.35;;;;;;;18.62;44.23;99560.47;1663595;85;21004;-60
2022/05/23 09:01:13;;;;;;;10.40;3.50;;;;;;;18.58;44.13;99556.53;1666021;86;21420;-57
2022/05/23 09:03:57;;;;;;;5.97;3.62;;;;;;;18.49;44.26;99565.09;1666143;86;21011;-61
2022/05/23 09:06:30;;;;;;;7.03;3.70;;;;;;;18.36;44.64;99557.25;1666138;86;20996;-59
2022/05/23 09:09:06;;;;;;;5.62;2.75;;;;;;;18.20;45.10;99567.95;1666230;86;21019;-59
2022/05/23 09:11:51;;;;;;;6.28;3.10;;;;;;;18.08;45.17;99568.70;1666204;86;21004;-61
2022/05/23 09:14:23;;;;;;;5.42;3.02;;;;;;;17.93;45.10;99579.14;1666275;86;21031;-59
2022/05/23 09:16:54;;;;;;;8.35;3.20;;;;;;;17.80;45.78;99577.66;1666043;86;21000;-60
2022/05/23 09:19:45;;;;;;;6.92;2.90;;;;;;;17.67;45.78;99578.10;1674751;83;21103;-59
2022/05/23 09:22:23;;;;;;;7.30;3.17;;;;;;;17.60;46.07;99584.38;1688055;85;21019;-59
2022/05/23 09:25:00;;;;;;;6.72;3.45;;;;;;;17.55;45.77;99580.15;1687740;85;20988;-59
2022/05/23 09:27:37;;;;;;;8.18;3.30;;;;;;;17.54;45.96;99576.55;1656690;85;21408;-60
2022/05/23 09:30:21;;;;;;;7.12;3.42;;;;;;;17.51;46.32;99579.84;1622857;87;21000;-58
2022/05/23 09:33:01;;;;;;;12.18;3.35;;;;;;;17.48;47.38;99578.98;1593887;90;21061;-58
2022/05/23 09:35:47;;;;;;;7.05;3.37;;;;;;;17.47;47.87;99587.00;1622636;88;21496;-59
2022/05/23 09:38:29;;;;;;;7.53;3.70;;;;;;;17.38;48.29;99585.81;1622620;88;21056;-60
2022/05/23 09:41:01;;;;;;;8.40;3.60;;;;;;;17.25;49.62;99582.08;1593873;89;21448;-60
2022/05/23 09:49:23;;;;;;;7.55;3.85;;;;;;;16.99;51.20;99580.98;1650544;86;20161;-60
2022/05/23 09:52:00;;;;;;;8.80;3.90;;;;;;;16.92;52.49;99583.11;1636886;86;21049;-59
2022/05/23 09:54:40;;;;;;;6.35;3.83;;;;;;;16.88;52.27;99583.30;1657298;86;21042;-58
2022/05/23 09:57:20;;;;;;;12.18;4.05;;;;;;;16.87;51.72;99585.23;1656836;86;21040;-59
2022/05/23 10:00:01;;;;;;;7.25;3.80;;;;;;;16.87;51.35;99577.48;1656312;87;21060;-60
2022/05/23 10:02:40;;;;;;;8.35;3.65;;;;;;;16.89;50.60;99578.90;1667816;86;21059;-59
2022/05/23 10:05:32;;;;;;;7.80;3.95;;;;;;;16.96;49.36;99574.03;1667627;86;21092;-58
2022/05/23 10:08:11;;;;;;;8.05;3.20;;;;;;;17.04;49.10;99571.34;1667304;86;21033;-59
2022/05/23 10:10:55;;;;;;;7.40;3.10;;;;;;;17.21;47.83;99572.63;1668012;86;21033;-59
2022/05/23 10:13:33;;;;;;;6.58;3.22;;;;;;;17.42;46.87;99570.34;1667788;86;21009;-58
2022/05/23 10:16:14;;;;;;;8.00;3.20;;;;;;;17.62;44.43;99571.10;1667999;86;21041;-59
2022/05/23 10:19:03;;;;;;;8.40;3.65;;;;;;;17.77;45.50;99574.03;1667734;85;20989;-58
2022/05/23 10:21:43;;;;;;;4.47;2.40;;;;;;;17.91;47.72;99582.17;1667768;85;21377;-61
2022/05/23 10:24:27;;;;;;;7.70;1.70;;;;;;;17.95;45.21;99588.85;1667786;86;20997;-58
2022/05/23 10:26:59;;;;;;;4.28;1.85;;;;;;;17.84;40.15;99589.87;1667868;85;21028;-58
2022/05/23 10:29:56;;;;;;;14.15;8.70;;;;;;;17.63;40.26;99594.94;1667222;86;21005;-59
2022/05/23 10:32:46;;;;;;;7.50;3.12;;;;;;;17.41;43.17;99604.13;1667783;85;21001;-57
2022/05/23 10:35:46;;;;;;;3.40;1.75;;;;;;;17.08;43.10;99606.55;1667792;86;21479;-61
2022/05/23 10:44:10;;;;;;;7.37;2.27;;;;;;;16.53;48.71;99612.71;1630240;88;21031;-59
2022/05/23 10:46:38;;;;;;;13.28;3.00;;;;;;;16.34;51.72;99611.63;1602709;88;21483;-60
2022/05/23 10:49:29;;;;;;;8.25;2.30;;;;;;;16.22;53.69;99611.41;1610592;88;21042;-59
2022/05/23 10:52:25;;;;;;;6.47;2.37;;;;;;;16.11;53.36;99607.12;1628812;88;21040;-60
2022/05/23 10:55:19;;;;;;;8.05;2.10;;;;;;;16.05;54.67;99612.81;1657094;86;21037;-63
2022/05/23 10:58:24;;;;;;;5.87;2.60;;;;;;;16.00;55.26;99611.36;1623261;86;20982;-60
2022/05/23 11:01:01;;;;;;;6.28;2.20;;;;;;;16.00;54.46;99614.95;1667516;85;21073;-60
2022/05/23 11:04:09;;;;;;;7.67;2.33;;;;;;;16.03;54.00;99610.30;1667513;85;20973;-60
2022/05/23 11:07:03;;;;;;;6.80;2.15;;;;;;;16.09;52.27;99616.20;1667454;86;21457;-59
2022/05/23 11:09:56;;;;;;;5.58;2.20;;;;;;;16.18;51.91;99615.23;1667385;85;21001;-60
2022/05/23 11:12:41;;;;;;;2.62;1.80;;;;;;;16.27;51.37;99615.12;1666988;86;20993;-61
2022/05/23 11:15:27;;;;;;;8.90;2.10;;;;;;;16.32;49.03;99621.27;1667459;86;21021;-59
2022/05/23 11:18:27;;;;;;;7.45;2.12;;;;;;;16.37;49.08;99621.34;1667411;85;20997;-58
2022/05/23 11:20:57;;;;;;;11.12;2.22;;;;;;;16.40;49.50;99621.66;1673163;86;21016;-58
2022/05/23 11:23:31;;;;;;;5.72;1.98;;;;;;;16.42;49.05;99615.88;1674736;86;21413;-59
2022/05/23 11:26:06;;;;;;;4.10;2.05;;;;;;;16.41;49.21;99614.20;1674681;86;21092;-61
2022/05/23 11:34:41;;;;;;;5.75;2.10;;;;;;;16.34;49.30;99613.01;1674831;85;21386;-58
2022/05/23 11:40:06;;;;;;;6.05;2.30;;;;;;;16.34;49.89;99613.55;1665779;84;21041;-57
2022/05/23 11:42:50;;;;;;;12.00;2.87;;;;;;;16.36;50.26;99614.14;1660842;86;21119;-58
2022/05/23 11:48:53;;;;;;;7.12;2.37;;;;;;;16.40;50.06;99611.16;1572666;91;21100;-59
2022/05/23 11:51:37;;;;;;;11.53;2.30;;;;;;;16.41;49.52;99599.84;1578668;90;21075;-61
2022/05/23 11:54:32;;;;;;;4.62;1.95;;;;;;;16.48;48.88;99595.50;1551587;92;21151;-56
2022/05/23 11:57:06;;;;;;;3.83;2.30;;;;;;;16.57;48.18;99604.19;1588287;89;21035;-56
2022/05/23 11:59:40;;;;;;;6.78;2.20;;;;;;;16.68;48.36;99608.25;1603736;89;21507;-56
2022/05/23 12:02:16;;;;;;;4.75;1.80;;;;;;;16.73;48.09;99601.39;1588184;89;21027;-56
2022/05/23 12:04:59;;;;;;;8.53;1.95;;;;;;;16.77;47.98;99605.31;1604071;89;21032;-56
2022/05/23 12:07:45;;;;;;;3.08;1.65;;;;;;;16.82;47.77;99603.16;1686842;85;21007;-58
2022/05/23 12:10:28;;;;;;;4.10;2.10;;;;;;;16.90;46.66;99610.17;1695485;85;20999;-59
2022/05/23 12:12:58;;;;;;;4.83;1.92;;;;;;;16.95;45.05;99603.34;1695704;85;21533;-59
2022/05/23 12:15:49;;;;;;;7.80;2.00;;;;;;;16.99;44.75;99605.33;1695402;85;21023;-59
2022/05/23 12:18:28;;;;;;;4.90;1.70;;;;;;;17.04;44.40;99604.01;1674484;83;21079;-58
2022/05/23 12:21:06;;;;;;;4.20;1.70;;;;;;;17.09;43.65;99599.91;1695267;85;21454;-57
2022/05/23 12:23:42;;;;;;;4.60;2.05;;;;;;;17.09;43.65;99599.91;1695250;84;22115;-56
2022/05/23 12:26:22;;;;;;;5.50;2.10;;;;;;;17.17;43.84;99600.00;1695478;85;21083;-58
2022/05/23 12:28:59;;;;;;;2.75;1.80;;;;;;;17.24;42.96;99596.47;1695081;85;20995;-57
2022/05/23 12:31:31;;;;;;;4.63;1.80;;;;;;;17.31;43.24;99601.25;1695759;84;21015;-57
2022/05/23 12:34:07;;;;;;;5.22;1.90;;;;;;;17.38;43.21;99594.95;1695291;85;20987;-57
2022/05/23 12:36:49;;;;;;;6.85;1.90;;;;;;;17.45;42.38;99594.73;1695089;85;21029;-57
2022/05/23 12:39:38;;;;;;;9.88;2.20;;;;;;;17.49;41.42;99592.28;1646795;85;21624;-58
2022/05/23 12:42:21;;;;;;;4.58;2.00;;;;;;;17.49;41.63;99592.28;1695254;85;21443;-58
2022/05/23 12:45:30;;;;;;;5.47;1.98;;;;;;;17.51;41.34;99592.85;1695225;85;21034;-57
2022/05/23 12:48:13;;;;;;;7.53;2.10;;;;;;;17.51;41.29;99590.08;1691939;85;20991;-57
2022/05/23 12:51:20;;;;;;;5.25;1.90;;;;;;;17.53;41.11;99592.05;1695265;85;21000;-57
2022/05/23 12:54:23;;;;;;;5.05;1.80;;;;;;;17.55;41.15;99598.16;1663802;86;21135;-59
2022/05/23 12:57:06;;;;;;;5.05;1.90;;;;;;;17.54;40.16;99593.16;1669269;85;21023;-58
2022/05/23 12:59:59;;;;;;;5.30;2.12;;;;;;;17.57;40.86;99602.91;1687991;85;21431;-57
2022/05/23 13:02:39;;;;;;;8.23;2.52;;;;;;;17.60;41.46;99600.45;1687949;85;21023;-59
2022/05/23 13:05:29;;;;;;;3.83;2.12;;;;;;;17.66;41.04;99595.80;1687930;85;21012;-59
2022/05/23 13:08:23;;;;;;;7.30;2.05;;;;;;;17.72;40.92;99596.98;1561804;88;21127;-58
2022/05/23 13:11:00;;;;;;;3.52;2.10;;;;;;;17.75;40.78;99602.55;1632703;88;21444;-59
2022/05/23 13:13:45;;;;;;;4.20;1.90;;;;;;;17.77;40.46;99598.97;1618064;88;21178;-59
2022/05/23 13:16:24;;;;;;;3.50;1.87;;;;;;;17.78;40.70;99597.87;1632463;88;21059;-61
2022/05/23 13:24:56;;;;;;;5.78;2.08;;;;;;;17.66;42.00;99586.09;1600487;90;21086;-59
2022/05/23 13:27:37;;;;;;;3.62;2.17;;;;;;;17.62;42.02;99600.19;1638688;87;21057;-58
2022/05/23 13:30:11;;;;;;;5.35;2.33;;;;;;;17.58;42.35;99600.43;1638628;87;21040;-59